sensor_id;sensor_type;location;lat;lon;timestamp;P1;durP1;ratioP1;P2;durP2;ratioP2
51266;SDS011;37338;47.426;19.204;2023-04-24T00:02:06;6.70;;;5.23;;
51266;SDS011;37338;47.426;19.204;2023-04-24T00:04:35;10.03;;;5.10;;
51266;SDS011;37338;47.426;19.204;2023-04-24T00:07:14;7.10;;;4.97;;
51266;SDS011;37338;47.426;19.204;2023-04-24T00:09:42;6.83;;;5.50;;
51266;SDS011;37338;47.426;19.204;2023-04-24T00:12:08;13.20;;;5.73;;
51266;SDS011;37338;47.426;19.204;2023-04-24T00:14:33;9.70;;;5.33;;
51266;SDS011;37338;47.426;19.204;2023-04-24T00:17:00;9.83;;;5.00;;
51266;SDS011;37338;47.426;19.204;2023-04-24T00:19:26;7.90;;;5.00;;
51266;SDS011;37338;47.426;19.204;2023-04-24T00:21:51;7.33;;;5.60;;
51266;SDS011;37338;47.426;19.204;2023-04-24T00:24:17;12.60;;;5.00;;
51266;SDS011;37338;47.426;19.204;2023-04-24T00:26:43;8.70;;;5.37;;
51266;SDS011;37338;47.426;19.204;2023-04-24T00:29:08;11.43;;;5.43;;
51266;SDS011;37338;47.426;19.204;2023-04-24T00:31:34;9.47;;;5.80;;
51266;SDS011;37338;47.426;19.204;2023-04-24T00:34:00;9.50;;;5.87;;
51266;SDS011;37338;47.426;19.204;2023-04-24T00:36:26;13.10;;;5.13;;
51266;SDS011;37338;47.426;19.204;2023-04-24T00:38:52;12.03;;;5.33;;
51266;SDS011;37338;47.426;19.204;2023-04-24T00:41:18;6.93;;;5.17;;
51266;SDS011;37338;47.426;19.204;2023-04-24T00:43:43;9.87;;;5.03;;
51266;SDS011;37338;47.426;19.204;2023-04-24T00:46:09;11.20;;;5.20;;
51266;SDS011;37338;47.426;19.204;2023-04-24T00:48:36;11.67;;;5.23;;
51266;SDS011;37338;47.426;19.204;2023-04-24T00:51:02;10.73;;;5.90;;
51266;SDS011;37338;47.426;19.204;2023-04-24T00:53:28;11.20;;;5.50;;
51266;SDS011;37338;47.426;19.204;2023-04-24T00:55:53;7.93;;;5.60;;
51266;SDS011;37338;47.426;19.204;2023-04-24T00:58:19;11.00;;;5.83;;
51266;SDS011;37338;47.426;19.204;2023-04-24T01:00:44;10.50;;;5.87;;
51266;SDS011;37338;47.426;19.204;2023-04-24T01:03:11;8.40;;;5.47;;
51266;SDS011;37338;47.426;19.204;2023-04-24T01:05:36;9.30;;;6.00;;
51266;SDS011;37338;47.426;19.204;2023-04-24T01:08:01;8.90;;;6.27;;
51266;SDS011;37338;47.426;19.204;2023-04-24T01:10:27;7.00;;;5.60;;
51266;SDS011;37338;47.426;19.204;2023-04-24T01:12:54;8.67;;;6.83;;
51266;SDS011;37338;47.426;19.204;2023-04-24T01:15:20;11.10;;;6.90;;
51266;SDS011;37338;47.426;19.204;2023-04-24T01:17:45;7.83;;;5.97;;
51266;SDS011;37338;47.426;19.204;2023-04-24T01:20:11;10.70;;;5.90;;
51266;SDS011;37338;47.426;19.204;2023-04-24T01:22:37;13.50;;;5.73;;
51266;SDS011;37338;47.426;19.204;2023-04-24T01:25:09;10.27;;;6.50;;
51266;SDS011;37338;47.426;19.204;2023-04-24T01:27:34;19.03;;;5.80;;
51266;SDS011;37338;47.426;19.204;2023-04-24T01:30:00;11.63;;;5.83;;
51266;SDS011;37338;47.426;19.204;2023-04-24T01:32:25;12.10;;;5.73;;
51266;SDS011;37338;47.426;19.204;2023-04-24T01:34:51;12.03;;;6.70;;
51266;SDS011;37338;47.426;19.204;2023-04-24T01:37:16;8.20;;;5.47;;
51266;SDS011;37338;47.426;19.204;2023-04-24T01:39:43;11.33;;;6.53;;
51266;SDS011;37338;47.426;19.204;2023-04-24T01:42:08;11.77;;;5.87;;
51266;SDS011;37338;47.426;19.204;2023-04-24T01:44:34;13.00;;;6.83;;
51266;SDS011;37338;47.426;19.204;2023-04-24T01:47:00;11.17;;;6.67;;
51266;SDS011;37338;47.426;19.204;2023-04-24T01:49:26;12.03;;;6.00;;
51266;SDS011;37338;47.426;19.204;2023-04-24T01:51:51;9.17;;;5.77;;
51266;SDS011;37338;47.426;19.204;2023-04-24T01:54:17;12.23;;;6.63;;
51266;SDS011;37338;47.426;19.204;2023-04-24T01:56:42;10.40;;;5.73;;
51266;SDS011;37338;47.426;19.204;2023-04-24T01:59:11;11.20;;;6.10;;
51266;SDS011;37338;47.426;19.204;2023-04-24T02:01:38;8.60;;;6.07;;
51266;SDS011;37338;47.426;19.204;2023-04-24T02:04:04;10.00;;;5.17;;
51266;SDS011;37338;47.426;19.204;2023-04-24T02:06:30;12.70;;;5.27;;
51266;SDS011;37338;47.426;19.204;2023-04-24T02:08:56;11.93;;;5.53;;
51266;SDS011;37338;47.426;19.204;2023-04-24T02:11:23;11.10;;;5.87;;
51266;SDS011;37338;47.426;19.204;2023-04-24T02:13:48;11.60;;;6.00;;
51266;SDS011;37338;47.426;19.204;2023-04-24T02:16:15;14.17;;;6.97;;
51266;SDS011;37338;47.426;19.204;2023-04-24T02:18:40;9.87;;;6.90;;
51266;SDS011;37338;47.426;19.204;2023-04-24T02:21:05;11.73;;;8.60;;
51266;SDS011;37338;47.426;19.204;2023-04-24T02:23:31;15.87;;;7.00;;
51266;SDS011;37338;47.426;19.204;2023-04-24T02:25:56;13.43;;;7.27;;
51266;SDS011;37338;47.426;19.204;2023-04-24T02:28:21;12.30;;;6.53;;
51266;SDS011;37338;47.426;19.204;2023-04-24T02:30:47;13.87;;;7.40;;
51266;SDS011;37338;47.426;19.204;2023-04-24T02:33:12;11.60;;;7.03;;
51266;SDS011;37338;47.426;19.204;2023-04-24T02:35:38;15.10;;;7.47;;
51266;SDS011;37338;47.426;19.204;2023-04-24T02:38:03;14.07;;;8.77;;
51266;SDS011;37338;47.426;19.204;2023-04-24T02:40:29;15.50;;;8.77;;
51266;SDS011;37338;47.426;19.204;2023-04-24T02:42:54;11.77;;;8.03;;
51266;SDS011;37338;47.426;19.204;2023-04-24T02:45:20;13.27;;;7.87;;
51266;SDS011;37338;47.426;19.204;2023-04-24T02:47:45;10.50;;;6.93;;
51266;SDS011;37338;47.426;19.204;2023-04-24T02:50:11;10.27;;;7.20;;
51266;SDS011;37338;47.426;19.204;2023-04-24T02:52:36;9.73;;;7.23;;
51266;SDS011;37338;47.426;19.204;2023-04-24T02:55:01;12.23;;;8.90;;
51266;SDS011;37338;47.426;19.204;2023-04-24T02:57:27;17.53;;;8.90;;
51266;SDS011;37338;47.426;19.204;2023-04-24T02:59:52;13.83;;;7.70;;
51266;SDS011;37338;47.426;19.204;2023-04-24T03:02:18;10.13;;;7.10;;
51266;SDS011;37338;47.426;19.204;2023-04-24T03:04:43;14.10;;;7.27;;
51266;SDS011;37338;47.426;19.204;2023-04-24T03:07:08;13.13;;;8.43;;
51266;SDS011;37338;47.426;19.204;2023-04-24T03:09:34;9.87;;;7.37;;
51266;SDS011;37338;47.426;19.204;2023-04-24T03:11:59;8.93;;;7.70;;
51266;SDS011;37338;47.426;19.204;2023-04-24T03:14:25;10.20;;;7.50;;
51266;SDS011;37338;47.426;19.204;2023-04-24T03:16:50;10.87;;;7.20;;
51266;SDS011;37338;47.426;19.204;2023-04-24T03:19:16;10.20;;;6.93;;
51266;SDS011;37338;47.426;19.204;2023-04-24T03:21:41;13.23;;;8.43;;
51266;SDS011;37338;47.426;19.204;2023-04-24T03:24:07;9.33;;;7.57;;
51266;SDS011;37338;47.426;19.204;2023-04-24T03:26:33;11.40;;;7.10;;
51266;SDS011;37338;47.426;19.204;2023-04-24T03:28:58;10.33;;;8.07;;
51266;SDS011;37338;47.426;19.204;2023-04-24T03:31:24;11.27;;;7.80;;
51266;SDS011;37338;47.426;19.204;2023-04-24T03:33:49;11.30;;;7.33;;
51266;SDS011;37338;47.426;19.204;2023-04-24T03:36:16;8.93;;;7.77;;
51266;SDS011;37338;47.426;19.204;2023-04-24T03:38:41;13.43;;;8.90;;
51266;SDS011;37338;47.426;19.204;2023-04-24T03:41:06;10.80;;;8.13;;
51266;SDS011;37338;47.426;19.204;2023-04-24T03:43:32;10.13;;;8.17;;
51266;SDS011;37338;47.426;19.204;2023-04-24T03:45:59;12.50;;;8.17;;
51266;SDS011;37338;47.426;19.204;2023-04-24T03:48:25;16.40;;;8.90;;
51266;SDS011;37338;47.426;19.204;2023-04-24T03:50:50;11.63;;;8.83;;
51266;SDS011;37338;47.426;19.204;2023-04-24T03:53:15;14.70;;;9.10;;
51266;SDS011;37338;47.426;19.204;2023-04-24T03:55:41;12.40;;;9.43;;
51266;SDS011;37338;47.426;19.204;2023-04-24T03:58:06;10.23;;;9.13;;
51266;SDS011;37338;47.426;19.204;2023-04-24T04:00:32;12.50;;;9.70;;
51266;SDS011;37338;47.426;19.204;2023-04-24T04:02:58;15.30;;;9.60;;
51266;SDS011;37338;47.426;19.204;2023-04-24T04:05:23;11.97;;;8.97;;
51266;SDS011;37338;47.426;19.204;2023-04-24T04:07:49;12.63;;;10.50;;
51266;SDS011;37338;47.426;19.204;2023-04-24T04:10:14;18.03;;;10.20;;
51266;SDS011;37338;47.426;19.204;2023-04-24T04:12:40;12.03;;;9.17;;
51266;SDS011;37338;47.426;19.204;2023-04-24T04:15:05;11.53;;;8.83;;
51266;SDS011;37338;47.426;19.204;2023-04-24T04:17:32;12.90;;;9.87;;
51266;SDS011;37338;47.426;19.204;2023-04-24T04:19:57;22.23;;;9.97;;
51266;SDS011;37338;47.426;19.204;2023-04-24T04:22:22;12.70;;;9.63;;
51266;SDS011;37338;47.426;19.204;2023-04-24T04:24:48;12.60;;;9.37;;
51266;SDS011;37338;47.426;19.204;2023-04-24T04:27:16;11.57;;;9.10;;
51266;SDS011;37338;47.426;19.204;2023-04-24T04:29:41;11.07;;;9.83;;
51266;SDS011;37338;47.426;19.204;2023-04-24T04:32:07;15.03;;;8.80;;
51266;SDS011;37338;47.426;19.204;2023-04-24T04:34:32;13.00;;;8.47;;
51266;SDS011;37338;47.426;19.204;2023-04-24T04:36:58;12.83;;;8.60;;
51266;SDS011;37338;47.426;19.204;2023-04-24T04:39:26;14.93;;;8.67;;
51266;SDS011;37338;47.426;19.204;2023-04-24T04:41:53;18.03;;;9.07;;
51266;SDS011;37338;47.426;19.204;2023-04-24T04:44:19;8.97;;;7.70;;
51266;SDS011;37338;47.426;19.204;2023-04-24T04:46:44;9.17;;;7.07;;
51266;SDS011;37338;47.426;19.204;2023-04-24T04:49:10;13.83;;;8.90;;
51266;SDS011;37338;47.426;19.204;2023-04-24T04:51:36;11.73;;;8.37;;
51266;SDS011;37338;47.426;19.204;2023-04-24T04:54:01;10.77;;;7.40;;
51266;SDS011;37338;47.426;19.204;2023-04-24T04:56:27;13.10;;;8.07;;
51266;SDS011;37338;47.426;19.204;2023-04-24T04:58:52;14.80;;;8.70;;
51266;SDS011;37338;47.426;19.204;2023-04-24T05:01:18;12.40;;;7.13;;
51266;SDS011;37338;47.426;19.204;2023-04-24T05:03:43;12.57;;;8.47;;
51266;SDS011;37338;47.426;19.204;2023-04-24T05:06:09;9.17;;;7.97;;
51266;SDS011;37338;47.426;19.204;2023-04-24T05:08:35;10.60;;;7.70;;
51266;SDS011;37338;47.426;19.204;2023-04-24T05:11:00;7.70;;;6.90;;
51266;SDS011;37338;47.426;19.204;2023-04-24T05:13:25;10.37;;;7.50;;
51266;SDS011;37338;47.426;19.204;2023-04-24T05:15:51;11.27;;;6.63;;
51266;SDS011;37338;47.426;19.204;2023-04-24T05:18:16;15.10;;;7.30;;
51266;SDS011;37338;47.426;19.204;2023-04-24T05:20:42;11.57;;;7.07;;
51266;SDS011;37338;47.426;19.204;2023-04-24T05:23:08;10.00;;;6.83;;
51266;SDS011;37338;47.426;19.204;2023-04-24T05:25:34;10.93;;;7.20;;
51266;SDS011;37338;47.426;19.204;2023-04-24T05:28:00;9.07;;;6.37;;
51266;SDS011;37338;47.426;19.204;2023-04-24T05:30:26;11.40;;;6.43;;
51266;SDS011;37338;47.426;19.204;2023-04-24T05:32:52;9.30;;;7.63;;
51266;SDS011;37338;47.426;19.204;2023-04-24T05:35:17;13.03;;;7.77;;
51266;SDS011;37338;47.426;19.204;2023-04-24T05:37:43;14.93;;;7.60;;
51266;SDS011;37338;47.426;19.204;2023-04-24T05:40:09;10.83;;;6.57;;
51266;SDS011;37338;47.426;19.204;2023-04-24T05:42:35;12.63;;;7.47;;
51266;SDS011;37338;47.426;19.204;2023-04-24T05:45:00;11.10;;;7.23;;
51266;SDS011;37338;47.426;19.204;2023-04-24T05:47:26;14.37;;;7.43;;
51266;SDS011;37338;47.426;19.204;2023-04-24T05:49:52;12.43;;;7.80;;
51266;SDS011;37338;47.426;19.204;2023-04-24T05:52:18;12.83;;;7.10;;
51266;SDS011;37338;47.426;19.204;2023-04-24T05:54:43;13.23;;;7.50;;
51266;SDS011;37338;47.426;19.204;2023-04-24T05:57:09;12.73;;;7.37;;
51266;SDS011;37338;47.426;19.204;2023-04-24T05:59:36;13.50;;;8.33;;
51266;SDS011;37338;47.426;19.204;2023-04-24T06:02:05;10.77;;;6.80;;
51266;SDS011;37338;47.426;19.204;2023-04-24T06:04:31;13.83;;;7.07;;
51266;SDS011;37338;47.426;19.204;2023-04-24T06:06:57;13.17;;;8.43;;
51266;SDS011;37338;47.426;19.204;2023-04-24T06:09:22;10.87;;;8.00;;
51266;SDS011;37338;47.426;19.204;2023-04-24T06:11:48;9.40;;;7.30;;
51266;SDS011;37338;47.426;19.204;2023-04-24T06:14:14;15.43;;;8.00;;
51266;SDS011;37338;47.426;19.204;2023-04-24T06:16:41;13.83;;;8.87;;
51266;SDS011;37338;47.426;19.204;2023-04-24T06:19:07;12.70;;;7.63;;
51266;SDS011;37338;47.426;19.204;2023-04-24T06:21:33;11.40;;;8.20;;
51266;SDS011;37338;47.426;19.204;2023-04-24T06:23:58;10.53;;;7.07;;
51266;SDS011;37338;47.426;19.204;2023-04-24T06:26:23;10.30;;;6.90;;
51266;SDS011;37338;47.426;19.204;2023-04-24T06:28:52;12.70;;;7.03;;
51266;SDS011;37338;47.426;19.204;2023-04-24T06:31:20;20.73;;;9.10;;
51266;SDS011;37338;47.426;19.204;2023-04-24T06:33:47;14.00;;;8.27;;
51266;SDS011;37338;47.426;19.204;2023-04-24T06:36:13;10.27;;;8.13;;
51266;SDS011;37338;47.426;19.204;2023-04-24T06:38:39;13.10;;;7.03;;
51266;SDS011;37338;47.426;19.204;2023-04-24T06:41:04;9.93;;;8.90;;
51266;SDS011;37338;47.426;19.204;2023-04-24T06:43:30;11.17;;;7.87;;
51266;SDS011;37338;47.426;19.204;2023-04-24T06:45:57;12.67;;;7.87;;
51266;SDS011;37338;47.426;19.204;2023-04-24T06:48:23;14.57;;;8.70;;
51266;SDS011;37338;47.426;19.204;2023-04-24T06:50:49;10.10;;;8.40;;
51266;SDS011;37338;47.426;19.204;2023-04-24T06:53:14;11.10;;;8.70;;
51266;SDS011;37338;47.426;19.204;2023-04-24T06:55:40;10.13;;;8.53;;
51266;SDS011;37338;47.426;19.204;2023-04-24T06:58:05;16.73;;;10.63;;
51266;SDS011;37338;47.426;19.204;2023-04-24T07:00:31;12.47;;;8.87;;
51266;SDS011;37338;47.426;19.204;2023-04-24T07:02:56;10.33;;;8.63;;
51266;SDS011;37338;47.426;19.204;2023-04-24T07:05:22;11.60;;;8.77;;
51266;SDS011;37338;47.426;19.204;2023-04-24T07:07:48;10.63;;;8.93;;
51266;SDS011;37338;47.426;19.204;2023-04-24T07:10:14;11.50;;;8.63;;
51266;SDS011;37338;47.426;19.204;2023-04-24T07:12:40;11.00;;;8.33;;
51266;SDS011;37338;47.426;19.204;2023-04-24T07:15:05;14.07;;;9.30;;
51266;SDS011;37338;47.426;19.204;2023-04-24T07:17:33;10.83;;;8.63;;
51266;SDS011;37338;47.426;19.204;2023-04-24T07:19:59;13.00;;;9.23;;
51266;SDS011;37338;47.426;19.204;2023-04-24T07:22:25;9.40;;;8.33;;
51266;SDS011;37338;47.426;19.204;2023-04-24T07:24:50;9.07;;;8.17;;
51266;SDS011;37338;47.426;19.204;2023-04-24T07:27:16;10.63;;;9.17;;
51266;SDS011;37338;47.426;19.204;2023-04-24T07:29:41;9.57;;;8.40;;
51266;SDS011;37338;47.426;19.204;2023-04-24T07:32:07;10.73;;;9.63;;
51266;SDS011;37338;47.426;19.204;2023-04-24T07:34:33;9.97;;;8.97;;
51266;SDS011;37338;47.426;19.204;2023-04-24T07:36:58;12.80;;;9.37;;
51266;SDS011;37338;47.426;19.204;2023-04-24T07:39:24;13.67;;;10.10;;
51266;SDS011;37338;47.426;19.204;2023-04-24T07:41:49;13.57;;;9.90;;
51266;SDS011;37338;47.426;19.204;2023-04-24T07:44:15;11.80;;;9.77;;
51266;SDS011;37338;47.426;19.204;2023-04-24T07:46:40;13.77;;;9.67;;
51266;SDS011;37338;47.426;19.204;2023-04-24T07:49:06;12.20;;;10.07;;
51266;SDS011;37338;47.426;19.204;2023-04-24T07:51:31;11.77;;;9.50;;
51266;SDS011;37338;47.426;19.204;2023-04-24T07:53:59;16.30;;;11.23;;
51266;SDS011;37338;47.426;19.204;2023-04-24T07:56:25;11.57;;;9.67;;
51266;SDS011;37338;47.426;19.204;2023-04-24T07:58:50;11.70;;;8.82;;
51266;SDS011;37338;47.426;19.204;2023-04-24T08:01:15;11.77;;;9.57;;
51266;SDS011;37338;47.426;19.204;2023-04-24T08:03:41;11.77;;;8.97;;
51266;SDS011;37338;47.426;19.204;2023-04-24T08:06:06;11.52;;;8.27;;
51266;SDS011;37338;47.426;19.204;2023-04-24T08:08:32;12.82;;;9.20;;
51266;SDS011;37338;47.426;19.204;2023-04-24T08:10:57;12.88;;;9.32;;
51266;SDS011;37338;47.426;19.204;2023-04-24T08:13:22;13.10;;;7.78;;
51266;SDS011;37338;47.426;19.204;2023-04-24T08:15:48;9.32;;;7.43;;
51266;SDS011;37338;47.426;19.204;2023-04-24T08:18:14;15.80;;;8.93;;
51266;SDS011;37338;47.426;19.204;2023-04-24T08:20:40;13.18;;;8.85;;
51266;SDS011;37338;47.426;19.204;2023-04-24T08:23:06;14.13;;;7.65;;
51266;SDS011;37338;47.426;19.204;2023-04-24T08:25:31;11.90;;;8.48;;
51266;SDS011;37338;47.426;19.204;2023-04-24T08:27:57;8.70;;;7.50;;
51266;SDS011;37338;47.426;19.204;2023-04-24T08:30:22;12.48;;;8.02;;
51266;SDS011;37338;47.426;19.204;2023-04-24T08:32:48;9.35;;;8.32;;
51266;SDS011;37338;47.426;19.204;2023-04-24T08:35:13;9.40;;;7.47;;
51266;SDS011;37338;47.426;19.204;2023-04-24T08:37:39;10.70;;;8.20;;
51266;SDS011;37338;47.426;19.204;2023-04-24T08:40:06;9.80;;;7.43;;
51266;SDS011;37338;47.426;19.204;2023-04-24T08:42:35;11.55;;;7.25;;
51266;SDS011;37338;47.426;19.204;2023-04-24T08:45:02;8.27;;;6.68;;
51266;SDS011;37338;47.426;19.204;2023-04-24T08:47:28;8.88;;;6.97;;
51266;SDS011;37338;47.426;19.204;2023-04-24T08:49:57;11.00;;;6.65;;
51266;SDS011;37338;47.426;19.204;2023-04-24T08:52:25;9.07;;;6.43;;
51266;SDS011;37338;47.426;19.204;2023-04-24T08:54:50;6.43;;;5.65;;
51266;SDS011;37338;47.426;19.204;2023-04-24T09:04:02;13.38;;;4.80;;
51266;SDS011;37338;47.426;19.204;2023-04-24T09:06:28;9.77;;;5.85;;
51266;SDS011;37338;47.426;19.204;2023-04-24T09:08:55;11.00;;;5.47;;
51266;SDS011;37338;47.426;19.204;2023-04-24T09:11:21;6.88;;;5.38;;
51266;SDS011;37338;47.426;19.204;2023-04-24T09:13:49;12.35;;;6.60;;
51266;SDS011;37338;47.426;19.204;2023-04-24T09:16:15;10.85;;;5.95;;
51266;SDS011;37338;47.426;19.204;2023-04-24T09:18:40;8.88;;;5.10;;
51266;SDS011;37338;47.426;19.204;2023-04-24T09:21:08;11.10;;;5.07;;
51266;SDS011;37338;47.426;19.204;2023-04-24T09:23:34;6.10;;;5.28;;
51266;SDS011;37338;47.426;19.204;2023-04-24T09:26:01;9.60;;;5.43;;
51266;SDS011;37338;47.426;19.204;2023-04-24T09:31:49;10.93;;;6.53;;
51266;SDS011;37338;47.426;19.204;2023-04-24T09:37:43;9.18;;;5.97;;
51266;SDS011;37338;47.426;19.204;2023-04-24T09:43:32;6.78;;;5.35;;
51266;SDS011;37338;47.426;19.204;2023-04-24T09:45:57;8.85;;;4.93;;
51266;SDS011;37338;47.426;19.204;2023-04-24T09:48:34;8.70;;;4.97;;
51266;SDS011;37338;47.426;19.204;2023-04-24T09:51:01;8.15;;;4.85;;
51266;SDS011;37338;47.426;19.204;2023-04-24T10:00:12;5.53;;;3.70;;
51266;SDS011;37338;47.426;19.204;2023-04-24T10:02:38;7.28;;;4.20;;
51266;SDS011;37338;47.426;19.204;2023-04-24T10:05:03;7.75;;;4.00;;
51266;SDS011;37338;47.426;19.204;2023-04-24T10:07:29;4.47;;;3.70;;
51266;SDS011;37338;47.426;19.204;2023-04-24T10:09:57;5.55;;;4.43;;
51266;SDS011;37338;47.426;19.204;2023-04-24T10:12:23;5.47;;;3.65;;
51266;SDS011;37338;47.426;19.204;2023-04-24T10:14:50;7.05;;;3.50;;
51266;SDS011;37338;47.426;19.204;2023-04-24T10:17:15;8.25;;;3.47;;
51266;SDS011;37338;47.426;19.204;2023-04-24T10:19:41;10.98;;;3.78;;
51266;SDS011;37338;47.426;19.204;2023-04-24T10:22:07;6.75;;;3.42;;
51266;SDS011;37338;47.426;19.204;2023-04-24T10:28:01;7.38;;;4.15;;
51266;SDS011;37338;47.426;19.204;2023-04-24T10:30:28;8.30;;;3.78;;
51266;SDS011;37338;47.426;19.204;2023-04-24T10:35:30;7.38;;;4.13;;
51266;SDS011;37338;47.426;19.204;2023-04-24T10:38:01;7.85;;;5.25;;
51266;SDS011;37338;47.426;19.204;2023-04-24T10:40:31;6.07;;;4.82;;
51266;SDS011;37338;47.426;19.204;2023-04-24T10:42:58;6.35;;;4.25;;
51266;SDS011;37338;47.426;19.204;2023-04-24T10:45:25;5.22;;;3.97;;
51266;SDS011;37338;47.426;19.204;2023-04-24T10:47:56;8.65;;;4.13;;
51266;SDS011;37338;47.426;19.204;2023-04-24T10:50:30;8.48;;;4.05;;
51266;SDS011;37338;47.426;19.204;2023-04-24T10:53:29;4.50;;;3.90;;
51266;SDS011;37338;47.426;19.204;2023-04-24T10:58:26;4.93;;;4.25;;
51266;SDS011;37338;47.426;19.204;2023-04-24T11:01:02;5.15;;;4.18;;
51266;SDS011;37338;47.426;19.204;2023-04-24T11:03:50;4.93;;;3.83;;
51266;SDS011;37338;47.426;19.204;2023-04-24T11:06:16;6.57;;;4.00;;
51266;SDS011;37338;47.426;19.204;2023-04-24T11:11:28;5.60;;;4.15;;
51266;SDS011;37338;47.426;19.204;2023-04-24T11:18:49;6.32;;;3.03;;
51266;SDS011;37338;47.426;19.204;2023-04-24T11:21:18;5.40;;;3.75;;
51266;SDS011;37338;47.426;19.204;2023-04-24T11:23:44;7.45;;;4.38;;
51266;SDS011;37338;47.426;19.204;2023-04-24T11:26:11;5.88;;;4.25;;
51266;SDS011;37338;47.426;19.204;2023-04-24T11:28:43;5.32;;;4.40;;
51266;SDS011;37338;47.426;19.204;2023-04-24T11:34:31;5.45;;;3.97;;
51266;SDS011;37338;47.426;19.204;2023-04-24T11:36:57;7.57;;;4.43;;
51266;SDS011;37338;47.426;19.204;2023-04-24T11:39:22;10.13;;;4.88;;
51266;SDS011;37338;47.426;19.204;2023-04-24T11:41:48;6.70;;;5.72;;
51266;SDS011;37338;47.426;19.204;2023-04-24T11:44:13;7.28;;;5.30;;
51266;SDS011;37338;47.426;19.204;2023-04-24T11:46:40;9.52;;;5.40;;
51266;SDS011;37338;47.426;19.204;2023-04-24T11:49:08;9.10;;;4.88;;
51266;SDS011;37338;47.426;19.204;2023-04-24T11:51:34;10.82;;;5.88;;
51266;SDS011;37338;47.426;19.204;2023-04-24T11:54:00;6.65;;;5.03;;
51266;SDS011;37338;47.426;19.204;2023-04-24T11:56:25;9.23;;;5.60;;
51266;SDS011;37338;47.426;19.204;2023-04-24T11:58:54;7.40;;;5.47;;
51266;SDS011;37338;47.426;19.204;2023-04-24T12:01:22;7.82;;;6.25;;
51266;SDS011;37338;47.426;19.204;2023-04-24T12:03:49;9.85;;;5.82;;
51266;SDS011;37338;47.426;19.204;2023-04-24T12:06:16;11.15;;;6.15;;
51266;SDS011;37338;47.426;19.204;2023-04-24T12:08:41;8.13;;;5.25;;
51266;SDS011;37338;47.426;19.204;2023-04-24T12:11:11;37.60;;;10.52;;
51266;SDS011;37338;47.426;19.204;2023-04-24T12:13:37;13.82;;;8.35;;
51266;SDS011;37338;47.426;19.204;2023-04-24T12:16:03;31.80;;;11.15;;
51266;SDS011;37338;47.426;19.204;2023-04-24T12:18:29;13.13;;;10.27;;
51266;SDS011;37338;47.426;19.204;2023-04-24T12:20:55;17.48;;;9.88;;
51266;SDS011;37338;47.426;19.204;2023-04-24T12:23:33;15.25;;;9.63;;
51266;SDS011;37338;47.426;19.204;2023-04-24T12:26:00;12.30;;;8.85;;
51266;SDS011;37338;47.426;19.204;2023-04-24T12:28:34;11.13;;;8.88;;
51266;SDS011;37338;47.426;19.204;2023-04-24T12:31:00;11.38;;;9.45;;
51266;SDS011;37338;47.426;19.204;2023-04-24T12:33:26;14.35;;;8.57;;
51266;SDS011;37338;47.426;19.204;2023-04-24T12:35:52;15.13;;;8.27;;
51266;SDS011;37338;47.426;19.204;2023-04-24T12:38:21;5.85;;;4.93;;
51266;SDS011;37338;47.426;19.204;2023-04-24T12:40:47;10.23;;;4.90;;
51266;SDS011;37338;47.426;19.204;2023-04-24T12:43:17;6.22;;;4.18;;
51266;SDS011;37338;47.426;19.204;2023-04-24T12:45:44;7.10;;;4.10;;
51266;SDS011;37338;47.426;19.204;2023-04-24T12:48:12;5.05;;;3.97;;
51266;SDS011;37338;47.426;19.204;2023-04-24T12:50:39;4.75;;;4.05;;
51266;SDS011;37338;47.426;19.204;2023-04-24T12:53:05;5.20;;;3.67;;
51266;SDS011;37338;47.426;19.204;2023-04-24T12:55:31;4.50;;;3.72;;
51266;SDS011;37338;47.426;19.204;2023-04-24T12:57:56;3.47;;;2.90;;
51266;SDS011;37338;47.426;19.204;2023-04-24T13:00:23;5.20;;;3.08;;
51266;SDS011;37338;47.426;19.204;2023-04-24T13:02:48;8.55;;;3.60;;
51266;SDS011;37338;47.426;19.204;2023-04-24T13:05:14;3.13;;;2.83;;
51266;SDS011;37338;47.426;19.204;2023-04-24T13:07:40;5.45;;;3.92;;
51266;SDS011;37338;47.426;19.204;2023-04-24T13:10:06;6.10;;;2.80;;
51266;SDS011;37338;47.426;19.204;2023-04-24T13:12:32;3.55;;;2.67;;
51266;SDS011;37338;47.426;19.204;2023-04-24T13:14:58;5.60;;;3.42;;
51266;SDS011;37338;47.426;19.204;2023-04-24T13:17:23;4.90;;;3.17;;
51266;SDS011;37338;47.426;19.204;2023-04-24T13:19:50;5.97;;;3.20;;
51266;SDS011;37338;47.426;19.204;2023-04-24T13:22:16;6.03;;;3.20;;
51266;SDS011;37338;47.426;19.204;2023-04-24T13:24:43;3.72;;;2.90;;
51266;SDS011;37338;47.426;19.204;2023-04-24T13:27:09;4.38;;;3.35;;
51266;SDS011;37338;47.426;19.204;2023-04-24T13:29:35;5.70;;;3.28;;
51266;SDS011;37338;47.426;19.204;2023-04-24T13:32:01;5.07;;;2.58;;
51266;SDS011;37338;47.426;19.204;2023-04-24T13:34:26;6.25;;;2.97;;
51266;SDS011;37338;47.426;19.204;2023-04-24T13:36:52;2.88;;;2.53;;
51266;SDS011;37338;47.426;19.204;2023-04-24T13:39:19;4.15;;;3.35;;
51266;SDS011;37338;47.426;19.204;2023-04-24T13:41:45;5.95;;;2.60;;
51266;SDS011;37338;47.426;19.204;2023-04-24T13:44:12;5.28;;;2.58;;
51266;SDS011;37338;47.426;19.204;2023-04-24T13:46:38;12.45;;;2.72;;
51266;SDS011;37338;47.426;19.204;2023-04-24T13:49:03;4.63;;;2.47;;
51266;SDS011;37338;47.426;19.204;2023-04-24T13:51:29;5.82;;;2.50;;
51266;SDS011;37338;47.426;19.204;2023-04-24T13:53:55;4.63;;;2.30;;
51266;SDS011;37338;47.426;19.204;2023-04-24T13:56:20;4.07;;;2.42;;
51266;SDS011;37338;47.426;19.204;2023-04-24T13:58:47;5.20;;;2.80;;
51266;SDS011;37338;47.426;19.204;2023-04-24T14:01:12;5.15;;;2.35;;
51266;SDS011;37338;47.426;19.204;2023-04-24T14:03:39;3.08;;;2.50;;
51266;SDS011;37338;47.426;19.204;2023-04-24T14:06:05;6.40;;;3.53;;
51266;SDS011;37338;47.426;19.204;2023-04-24T14:08:31;5.43;;;2.97;;
51266;SDS011;37338;47.426;19.204;2023-04-24T14:10:57;3.55;;;2.35;;
51266;SDS011;37338;47.426;19.204;2023-04-24T14:13:22;2.90;;;2.65;;
51266;SDS011;37338;47.426;19.204;2023-04-24T14:15:48;5.63;;;3.17;;
51266;SDS011;37338;47.426;19.204;2023-04-24T14:18:13;9.07;;;3.42;;
51266;SDS011;37338;47.426;19.204;2023-04-24T14:20:39;4.78;;;2.75;;
51266;SDS011;37338;47.426;19.204;2023-04-24T14:23:05;7.70;;;2.58;;
51266;SDS011;37338;47.426;19.204;2023-04-24T14:25:30;4.72;;;2.60;;
51266;SDS011;37338;47.426;19.204;2023-04-24T14:27:56;5.53;;;2.40;;
51266;SDS011;37338;47.426;19.204;2023-04-24T14:30:21;5.20;;;2.88;;
51266;SDS011;37338;47.426;19.204;2023-04-24T14:32:47;6.53;;;3.22;;
51266;SDS011;37338;47.426;19.204;2023-04-24T14:35:12;4.78;;;2.63;;
51266;SDS011;37338;47.426;19.204;2023-04-24T14:37:39;5.68;;;2.88;;
51266;SDS011;37338;47.426;19.204;2023-04-24T14:40:06;3.58;;;3.15;;
51266;SDS011;37338;47.426;19.204;2023-04-24T14:42:32;4.45;;;4.05;;
51266;SDS011;37338;47.426;19.204;2023-04-24T14:44:58;4.32;;;3.70;;
51266;SDS011;37338;47.426;19.204;2023-04-24T14:47:23;6.88;;;3.40;;
51266;SDS011;37338;47.426;19.204;2023-04-24T14:49:49;6.95;;;3.65;;
51266;SDS011;37338;47.426;19.204;2023-04-24T14:52:15;4.50;;;3.42;;
51266;SDS011;37338;47.426;19.204;2023-04-24T14:54:41;8.02;;;4.10;;
51266;SDS011;37338;47.426;19.204;2023-04-24T14:57:07;8.55;;;4.75;;
51266;SDS011;37338;47.426;19.204;2023-04-24T14:59:32;4.45;;;3.90;;
51266;SDS011;37338;47.426;19.204;2023-04-24T15:01:57;6.95;;;5.00;;
51266;SDS011;37338;47.426;19.204;2023-04-24T15:04:23;7.25;;;4.97;;